Time;durP1;ratioP1;P1;durP2;ratioP2;P2;SDS_P1;SDS_P2;PMS_P1;PMS_P2;Temp;Humidity;BMP_temperature;BMP_pressure;BME280_temperature;BME280_humidity;BME280_pressure;Samples;Min_cycle;Max_cycle;Signal;HPM_P1;HPM_P2
2021/07/28 00:00:06;;;;;;;7.70;6.55;;;25.60;99.90;;;;;;4845041;29;20050;-90
2021/07/28 00:02:35;;;;;;;7.30;6.60;;;25.60;99.90;;;;;;4843113;29;20133;-89
2021/07/28 00:05:02;;;;;;;9.15;7.00;;;25.60;99.90;;;;;;4826099;29;20038;-90
2021/07/28 00:07:27;;;;;;;7.90;6.82;;;25.60;99.90;;;;;;4826611;29;20037;-90
2021/07/28 00:09:56;;;;;;;8.60;7.35;;;25.60;99.90;;;;;;4828549;29;20030;-90
2021/07/28 00:12:24;;;;;;;8.02;7.22;;;25.60;99.90;;;;;;4828007;29;20034;-90
2021/07/28 00:14:52;;;;;;;7.80;7.00;;;25.60;99.90;;;;;;4830196;29;20026;-90
2021/07/28 00:17:28;;;;;;;7.80;7.00;;;25.60;99.90;;;;;;4827128;29;20117;-90
2021/07/28 00:23:14;;;;;;;8.85;7.95;;;25.60;99.90;;;;;;4817664;29;20062;-90
2021/07/28 00:25:43;;;;;;;9.45;8.40;;;25.60;99.90;;;;;;4827003;29;20121;-89
2021/07/28 00:28:16;;;;;;;9.45;8.45;;;25.50;99.90;;;;;;4844915;29;20401;-90
2021/07/28 00:30:43;;;;;;;9.15;8.18;;;25.60;99.90;;;;;;4813119;29;20193;-90
2021/07/28 00:33:09;;;;;;;9.38;8.25;;;25.50;99.90;;;;;;4844013;29;20061;-90
2021/07/28 00:35:47;;;;;;;;;;;;;;;;;;;;;
2021/07/28 00:38:13;;;;;;;10.85;9.40;;;25.60;99.90;;;;;;4842937;29;20030;-90
2021/07/28 00:40:47;;;;;;;10.15;9.13;;;25.60;99.90;;;;;;4826504;29;20133;-91
2021/07/28 00:43:15;;;;;;;10.82;9.70;;;25.60;99.90;;;;;;4826426;29;20048;-89
2021/07/28 00:46:03;;;;;;;12.32;10.70;;;25.60;99.90;;;;;;4826230;29;20036;-90
2021/07/28 00:48:35;;;;;;;12.02;10.32;;;25.60;99.90;;;;;;4825538;29;20346;-90
2021/07/28 00:51:06;;;;;;;13.57;11.52;;;25.50;99.90;;;;;;4825998;29;20038;-89
2021/07/28 00:53:34;;;;;;;13.77;11.57;;;25.60;99.90;;;;;;4826553;29;20077;-90
2021/07/28 00:56:05;;;;;;;12.60;10.88;;;25.60;99.90;;;;;;4813731;29;20065;-89
2021/07/28 00:58:33;;;;;;;13.27;11.88;;;25.60;99.90;;;;;;4827658;29;20066;-88
2021/07/28 01:01:02;;;;;;;14.95;12.93;;;25.60;99.90;;;;;;4807311;29;20045;-89
2021/07/28 01:03:31;;;;;;;13.93;12.30;;;25.50;99.90;;;;;;4808123;29;20030;-90
2021/07/28 01:06:01;;;;;;;14.40;12.18;;;25.60;99.90;;;;;;4807698;29;20026;-91
2021/07/28 01:08:30;;;;;;;14.02;11.98;;;25.60;99.90;;;;;;4807842;29;20026;-89
2021/07/28 01:11:01;;;;;;;15.18;13.18;;;25.60;99.90;;;;;;4807929;29;20030;-90
2021/07/28 01:13:28;;;;;;;15.57;13.70;;;25.50;99.90;;;;;;4818386;29;20041;-89
2021/07/28 01:16:17;;;;;;;14.95;13.23;;;25.50;99.90;;;;;;4811566;29;20493;-90
2021/07/28 01:18:49;;;;;;;15.80;14.05;;;25.50;99.90;;;;;;4807664;29;20062;-90
2021/07/28 01:21:18;;;;;;;15.77;13.85;;;25.50;99.90;;;;;;4803092;29;20138;-90
2021/07/28 01:23:45;;;;;;;16.52;14.73;;;25.50;99.90;;;;;;4818653;29;20457;-91
2021/07/28 01:26:18;;;;;;;16.70;14.95;;;25.50;99.90;;;;;;4825245;29;20030;-92
2021/07/28 01:28:44;;;;;;;15.85;13.88;;;25.50;99.90;;;;;;4829564;29;20037;-91
2021/07/28 01:31:28;;;;;;;;;;;;;;;;;;;;;
2021/07/28 01:33:57;;;;;;;;;;;25.50;99.90;;;;;;4828378;29;20029;-90
2021/07/28 01:36:45;;;;;;;18.15;16.20;;;25.50;99.90;;;;;;4811271;29;19931;-92
2021/07/28 01:39:13;;;;;;;17.50;15.50;;;25.50;99.90;;;;;;4829974;29;20034;-91
2021/07/28 01:41:41;;;;;;;17.60;14.98;;;25.50;99.90;;;;;;4811381;29;20093;-91
2021/07/28 01:44:14;;;;;;;17.90;15.60;;;25.50;99.90;;;;;;4826214;29;20034;-92
2021/07/28 01:46:45;;;;;;;18.08;15.85;;;25.50;99.90;;;;;;4796136;29;20030;-92
2021/07/28 01:49:15;;;;;;;18.80;16.02;;;25.50;99.90;;;;;;4832191;29;20103;-92
2021/07/28 01:51:42;;;;;;;17.58;15.65;;;25.50;99.90;;;;;;4812010;29;20087;-89
2021/07/28 01:54:10;;;;;;;17.17;14.85;;;25.50;99.90;;;;;;4827406;29;20030;-90
2021/07/28 01:56:42;;;;;;;15.77;14.00;;;25.50;99.90;;;;;;4827424;29;20026;-92
2021/07/28 01:59:26;;;;;;;;;;;;;;;;;;;;;
2021/07/28 02:01:56;;;;;;;17.63;14.98;;;25.50;99.90;;;;;;4838453;29;20142;-91
2021/07/28 02:04:22;;;;;;;18.35;15.60;;;25.50;99.90;;;;;;4839466;29;20437;-88
2021/07/28 02:06:52;;;;;;;18.02;15.23;;;25.50;99.90;;;;;;4840399;29;20030;-92
2021/07/28 02:09:20;;;;;;;20.00;15.88;;;25.50;99.90;;;;;;4814705;29;20039;-91
2021/07/28 02:11:51;;;;;;;17.40;15.40;;;25.50;99.90;;;;;;4811898;29;20038;-90
2021/07/28 02:14:17;;;;;;;17.77;15.70;;;25.50;99.90;;;;;;4826749;29;20031;-90
2021/07/28 02:16:43;;;;;;;17.02;14.95;;;25.40;99.90;;;;;;4837518;29;20037;-91
2021/07/28 02:19:09;;;;;;;17.38;15.07;;;25.40;99.90;;;;;;4825926;29;20038;-91
2021/07/28 02:21:39;;;;;;;16.25;14.50;;;25.40;99.90;;;;;;4827308;29;20042;-91
2021/07/28 02:24:05;;;;;;;16.05;14.25;;;25.40;99.90;;;;;;4824776;29;20069;-89
2021/07/28 02:26:31;;;;;;;16.25;14.18;;;25.40;99.90;;;;;;4825183;29;20059;-90
2021/07/28 02:28:59;;;;;;;15.65;14.05;;;25.40;99.90;;;;;;4825896;29;20382;-93
2021/07/28 02:31:24;;;;;;;16.88;14.27;;;25.40;99.90;;;;;;4830440;29;20038;-90
2021/07/28 02:33:50;;;;;;;16.83;14.20;;;25.40;99.90;;;;;;4828692;29;20010;-90
2021/07/28 02:36:18;;;;;;;16.65;14.73;;;25.40;99.90;;;;;;4809602;29;20030;-90
2021/07/28 02:38:44;;;;;;;16.42;14.20;;;25.40;99.90;;;;;;4826353;29;20031;-90
2021/07/28 02:41:22;;;;;;;16.23;14.40;;;25.30;99.90;;;;;;4825165;29;20420;-90
2021/07/28 02:43:48;;;;;;;16.60;14.75;;;25.40;99.90;;;;;;4814199;29;20061;-91
2021/07/28 02:46:21;;;;;;;17.33;15.35;;;25.40;99.90;;;;;;4826986;29;20077;-91
2021/07/28 02:48:51;;;;;;;17.60;15.70;;;25.40;99.90;;;;;;4826405;29;20466;-91
2021/07/28 02:51:29;;;;;;;17.98;15.75;;;25.40;99.90;;;;;;4824948;29;20034;-90
2021/07/28 02:53:58;;;;;;;17.48;15.55;;;25.40;99.90;;;;;;4810148;29;20031;-89
2021/07/28 02:56:26;;;;;;;18.17;15.85;;;25.40;99.90;;;;;;4826973;29;20465;-91
2021/07/28 02:58:54;;;;;;;19.40;16.17;;;25.40;99.90;;;;;;4825878;29;20026;-90
2021/07/28 03:01:22;;;;;;;18.35;16.30;;;25.40;99.90;;;;;;4829587;29;20047;-92
2021/07/28 03:03:48;;;;;;;17.50;15.65;;;25.40;99.90;;;;;;4824055;29;20049;-90
2021/07/28 03:06:13;;;;;;;19.10;16.95;;;25.40;99.90;;;;;;4838191;29;20109;-92
2021/07/28 03:08:42;;;;;;;19.38;17.25;;;25.40;99.90;;;;;;4827800;29;20022;-91
2021/07/28 03:11:10;;;;;;;20.60;18.00;;;25.40;99.90;;;;;;4812947;29;20121;-93
2021/07/28 03:13:39;;;;;;;21.27;18.25;;;25.40;99.90;;;;;;4844075;29;20445;-91
2021/07/28 03:16:06;;;;;;;20.45;17.80;;;25.40;99.90;;;;;;4846200;29;20038;-92
2021/07/28 03:18:32;;;;;;;20.60;17.98;;;25.40;99.90;;;;;;4843972;29;20558;-92
2021/07/28 03:20:58;;;;;;;22.48;19.17;;;25.40;99.90;;;;;;4828125;29;20599;-91
2021/07/28 03:23:26;;;;;;;22.02;19.15;;;25.40;99.90;;;;;;4827988;29;20129;-92
2021/07/28 03:25:57;;;;;;;22.00;19.17;;;25.40;99.90;;;;;;4829885;29;20037;-92
2021/07/28 03:28:26;;;;;;;22.85;19.70;;;25.40;99.90;;;;;;4827789;29;20192;-91
2021/07/28 03:30:56;;;;;;;23.88;20.15;;;25.40;99.90;;;;;;4844898;29;20496;-92
2021/07/28 03:33:24;;;;;;;24.52;21.10;;;25.40;99.90;;;;;;4830364;29;20048;-92
2021/07/28 03:35:51;;;;;;;24.40;21.48;;;25.40;99.90;;;;;;4828078;29;20045;-93
2021/07/28 03:38:17;;;;;;;26.67;22.77;;;25.40;99.90;;;;;;4828789;29;20199;-90
2021/07/28 03:40:45;;;;;;;27.52;21.92;;;25.40;99.90;;;;;;4825824;29;20545;-91
2021/07/28 03:43:11;;;;;;;25.85;22.80;;;25.40;99.90;;;;;;4846433;29;20038;-90
2021/07/28 03:45:49;;;;;;;;;;;;;;;;;;;;;
2021/07/28 03:48:15;;;;;;;30.23;24.17;;;25.40;99.90;;;;;;4843498;29;20492;-90
2021/07/28 03:50:41;;;;;;;27.95;23.98;;;25.40;99.90;;;;;;4827290;29;20132;-90
2021/07/28 03:53:06;;;;;;;28.98;23.85;;;25.40;99.90;;;;;;4843672;29;20228;-91
2021/07/28 03:55:32;;;;;;;27.23;23.70;;;25.40;99.90;;;;;;4826734;29;20401;-90
2021/07/28 03:57:58;;;;;;;29.88;24.10;;;25.40;99.90;;;;;;4826714;29;20086;-90
2021/07/28 04:00:29;;;;;;;28.95;24.42;;;25.40;99.90;;;;;;4826882;29;20061;-90
2021/07/28 04:02:54;;;;;;;29.92;25.35;;;25.40;99.90;;;;;;4830540;29;20036;-90
2021/07/28 04:05:25;;;;;;;29.02;25.25;;;25.40;99.90;;;;;;4826764;29;20129;-90
2021/07/28 04:07:57;;;;;;;31.00;25.55;;;25.40;99.90;;;;;;4827588;29;20026;-90
2021/07/28 04:10:23;;;;;;;31.92;27.15;;;25.40;99.90;;;;;;4844616;29;20034;-91
2021/07/28 04:12:51;;;;;;;30.85;24.92;;;25.40;99.90;;;;;;4829392;29;20695;-90
2021/07/28 04:15:24;;;;;;;28.10;24.48;;;25.40;99.90;;;;;;4826558;29;20113;-91
2021/07/28 04:17:50;;;;;;;31.52;25.52;;;25.40;99.90;;;;;;4826450;29;20086;-91
2021/07/28 04:20:19;;;;;;;30.23;25.45;;;25.40;99.90;;;;;;4825944;29;20087;-90
2021/07/28 04:22:46;;;;;;;30.83;25.42;;;25.40;99.90;;;;;;4826484;29;20029;-90
2021/07/28 04:25:15;;;;;;;28.63;24.98;;;25.40;99.90;;;;;;4835632;29;20074;-90
2021/07/28 04:27:41;;;;;;;30.40;25.67;;;25.40;99.90;;;;;;4826336;29;20464;-90
2021/07/28 04:30:10;;;;;;;28.77;24.77;;;25.40;99.90;;;;;;4842510;29;20041;-92
2021/07/28 04:32:36;;;;;;;28.55;25.20;;;25.40;99.90;;;;;;4829949;29;20077;-90
2021/07/28 04:35:02;;;;;;;31.33;26.08;;;25.40;99.90;;;;;;4847362;29;20038;-90
2021/07/28 04:37:40;;;;;;;;;;;;;;;;;;;;;
2021/07/28 04:40:21;;;;;;;;;;;;;;;;;;;;;
2021/07/28 04:42:51;;;;;;;31.88;25.67;;;25.40;99.90;;;;;;4849249;29;20102;-90
2021/07/28 04:45:19;;;;;;;29.23;24.38;;;25.40;99.90;;;;;;4830774;29;20544;-90
2021/07/28 04:47:45;;;;;;;31.10;25.95;;;25.40;99.90;;;;;;4826032;29;20086;-90
2021/07/28 04:50:11;;;;;;;30.48;25.73;;;25.40;99.90;;;;;;4827614;29;20042;-91
2021/07/28 04:52:37;;;;;;;30.33;24.73;;;25.40;99.90;;;;;;4841913;29;20034;-90
2021/07/28 04:55:05;;;;;;;28.65;24.27;;;25.40;99.90;;;;;;4844059;29;20546;-90
2021/07/28 04:57:35;;;;;;;28.23;23.73;;;25.40;99.90;;;;;;4826888;29;20493;-90
2021/07/28 05:00:04;;;;;;;28.40;23.77;;;25.40;99.90;;;;;;4825681;29;20070;-90
2021/07/28 05:02:30;;;;;;;27.45;23.67;;;25.40;99.90;;;;;;4826252;29;20348;-92
2021/07/28 05:05:05;;;;;;;;;;;;;;;;;;;;;
2021/07/28 05:07:43;;;;;;;26.52;22.88;;;25.40;99.90;;;;;;4852564;29;20121;-93
2021/07/28 05:10:10;;;;;;;26.63;22.67;;;25.40;99.90;;;;;;4826325;29;20468;-91
2021/07/28 05:12:35;;;;;;;25.30;21.75;;;25.40;99.90;;;;;;4829751;29;20042;-91
2021/07/28 05:15:11;;;;;;;27.45;22.60;;;25.40;99.90;;;;;;4835147;29;20430;-90
2021/07/28 05:17:49;;;;;;;25.30;21.98;;;25.40;99.90;;;;;;4827130;29;20030;-90
2021/07/28 05:20:16;;;;;;;26.20;22.52;;;25.40;99.90;;;;;;4830779;29;20134;-90
2021/07/28 05:22:45;;;;;;;25.40;21.77;;;25.40;99.90;;;;;;4852595;29;20034;-90
2021/07/28 05:25:12;;;;;;;26.58;21.80;;;25.40;99.90;;;;;;4834917;29;20125;-90
2021/07/28 05:27:40;;;;;;;25.95;21.67;;;25.40;99.90;;;;;;4829069;29;20029;-90
2021/07/28 05:30:09;;;;;;;25.17;21.02;;;25.40;99.90;;;;;;4825789;29;20082;-90
2021/07/28 05:32:35;;;;;;;24.42;20.67;;;25.40;99.90;;;;;;4847446;29;20065;-92
2021/07/28 05:35:01;;;;;;;24.35;21.02;;;25.40;99.90;;;;;;4826051;29;20042;-91
2021/07/28 05:37:38;;;;;;;23.00;19.50;;;25.40;99.90;;;;;;4824549;29;20026;-92
2021/07/28 05:40:11;;;;;;;22.88;20.00;;;25.40;99.90;;;;;;4827691;29;20046;-91
2021/07/28 05:42:37;;;;;;;23.77;20.38;;;25.40;99.90;;;;;;4825362;29;20053;-91
2021/07/28 05:45:06;;;;;;;23.52;19.63;;;25.40;99.90;;;;;;4825933;29;20575;-91
2021/07/28 05:47:31;;;;;;;22.30;18.80;;;25.40;99.90;;;;;;4835028;29;20473;-90
2021/07/28 05:49:59;;;;;;;20.83;18.55;;;25.40;99.90;;;;;;4825963;29;20232;-91
2021/07/28 05:52:47;;;;;;;22.75;18.77;;;25.40;99.90;;;;;;4830681;29;20066;-91
2021/07/28 05:55:17;;;;;;;22.75;19.63;;;25.40;99.90;;;;;;4826140;29;20034;-91
2021/07/28 05:57:53;;;;;;;;;;;;;;;;;;;;;
2021/07/28 06:00:19;;;;;;;23.95;19.77;;;25.40;99.90;;;;;;4842289;29;20058;-90
2021/07/28 06:02:52;;;;;;;24.77;20.10;;;25.40;99.90;;;;;;4841067;29;20465;-91
2021/07/28 06:05:25;;;;;;;22.13;19.42;;;25.40;99.90;;;;;;4826321;29;20159;-92
2021/07/28 06:07:51;;;;;;;22.02;18.80;;;25.40;99.90;;;;;;4825672;29;20052;-91
2021/07/28 06:10:26;;;;;;;22.25;18.92;;;25.40;99.90;;;;;;4831552;29;20544;-93
2021/07/28 06:12:54;;;;;;;23.38;18.85;;;25.40;99.90;;;;;;4833640;29;20056;-91
2021/07/28 06:15:22;;;;;;;21.40;17.90;;;25.50;99.90;;;;;;4852013;29;20048;-91
2021/07/28 06:17:48;;;;;;;19.73;17.08;;;25.50;99.90;;;;;;4842074;29;20029;-91
2021/07/28 06:20:21;;;;;;;21.23;18.23;;;25.50;99.90;;;;;;4843668;29;20054;-90
2021/07/28 06:22:50;;;;;;;21.47;19.13;;;25.50;99.90;;;;;;4851729;29;20030;-92
2021/07/28 06:25:19;;;;;;;23.10;18.55;;;25.50;99.90;;;;;;4829854;29;20297;-92
2021/07/28 06:27:51;;;;;;;22.52;18.42;;;25.50;99.90;;;;;;4829442;29;20036;-91
2021/07/28 06:30:17;;;;;;;19.20;16.90;;;25.50;99.90;;;;;;4847707;29;20091;-93
2021/07/28 06:32:48;;;;;;;20.42;16.90;;;25.50;99.90;;;;;;4828988;29;20045;-91
2021/07/28 06:35:16;;;;;;;19.77;16.63;;;25.50;99.90;;;;;;4828542;29;20034;-90
2021/07/28 06:37:43;;;;;;;18.85;16.75;;;25.50;99.90;;;;;;4829985;29;20541;-89
2021/07/28 06:40:11;;;;;;;21.88;18.08;;;25.50;99.90;;;;;;4830235;29;20159;-94
2021/07/28 06:42:45;;;;;;;19.58;16.75;;;25.50;99.90;;;;;;4832655;29;20057;-92
2021/07/28 06:45:12;;;;;;;19.85;16.75;;;25.50;99.90;;;;;;4828871;29;20089;-91
2021/07/28 06:47:37;;;;;;;19.20;16.50;;;25.50;99.90;;;;;;4844339;29;20026;-91
2021/07/28 06:50:03;;;;;;;20.92;16.75;;;25.50;99.90;;;;;;4827946;29;20394;-90
2021/07/28 06:52:29;;;;;;;19.70;16.52;;;25.50;99.90;;;;;;4827605;29;20032;-90
2021/07/28 06:54:55;;;;;;;18.85;16.45;;;25.50;99.90;;;;;;4834160;29;20106;-90
2021/07/28 06:57:21;;;;;;;19.30;15.77;;;25.50;99.90;;;;;;4830092;29;20053;-90
2021/07/28 06:59:49;;;;;;;17.02;14.82;;;25.50;99.90;;;;;;4830049;29;20046;-93
2021/07/28 07:02:17;;;;;;;15.45;13.55;;;25.50;99.90;;;;;;4828535;29;20073;-92
2021/07/28 07:04:43;;;;;;;15.10;12.80;;;25.50;99.90;;;;;;4831020;29;20021;-92
2021/07/28 07:07:08;;;;;;;13.88;12.27;;;25.50;99.90;;;;;;4828748;29;20034;-91
2021/07/28 07:09:34;;;;;;;12.75;11.30;;;25.50;99.90;;;;;;4845561;29;20033;-92
2021/07/28 07:12:00;;;;;;;14.10;11.75;;;25.50;99.90;;;;;;4828523;29;20033;-92
2021/07/28 07:14:25;;;;;;;12.48;10.75;;;25.50;99.90;;;;;;4843980;29;20046;-93
2021/07/28 07:16:54;;;;;;;10.25;9.10;;;25.50;99.90;;;;;;4828437;29;20405;-93
2021/07/28 07:19:30;;;;;;;10.25;9.15;;;25.50;99.90;;;;;;4828570;29;20067;-93
2021/07/28 07:21:57;;;;;;;9.55;8.55;;;25.50;99.90;;;;;;4815529;29;20050;-92
2021/07/28 07:24:29;;;;;;;9.20;7.68;;;25.40;99.90;;;;;;4844787;29;20034;-90
2021/07/28 07:27:05;;;;;;;8.48;7.57;;;25.50;99.90;;;;;;4830971;29;20030;-94
2021/07/28 07:29:43;;;;;;;7.95;7.15;;;25.50;99.90;;;;;;4814127;29;20491;-94
2021/07/28 07:32:09;;;;;;;6.70;5.93;;;25.50;99.90;;;;;;4829344;29;20098;-92
2021/07/28 07:34:34;;;;;;;6.60;5.80;;;25.40;99.90;;;;;;4828144;29;20037;-93
2021/07/28 07:37:00;;;;;;;5.95;5.35;;;25.50;99.90;;;;;;4829151;29;20084;-93
2021/07/28 07:39:26;;;;;;;5.68;5.13;;;25.50;99.90;;;;;;4827903;29;20506;-92
2021/07/28 07:41:54;;;;;;;5.22;4.72;;;25.50;99.90;;;;;;4832278;29;20066;-94
2021/07/28 07:44:28;;;;;;;5.60;4.72;;;25.40;99.90;;;;;;4833582;29;20481;-93
2021/07/28 07:46:57;;;;;;;5.53;4.65;;;25.40;99.90;;;;;;4819725;29;20121;-93
2021/07/28 07:49:32;;;;;;;4.80;4.30;;;25.40;99.90;;;;;;4833265;29;20481;-95
2021/07/28 07:52:03;;;;;;;4.78;4.22;;;25.40;99.90;;;;;;4844535;29;20038;-95
2021/07/28 07:54:51;;;;;;;4.15;3.75;;;25.40;99.90;;;;;;4823019;29;20038;-93
2021/07/28 07:57:20;;;;;;;3.70;3.40;;;25.40;99.90;;;;;;4832554;29;20091;-94
2021/07/28 07:59:46;;;;;;;3.60;3.30;;;25.40;99.90;;;;;;4827434;29;20066;-92
2021/07/28 08:02:11;;;;;;;3.60;3.20;;;25.40;99.90;;;;;;4844755;29;20384;-92
2021/07/28 08:04:39;;;;;;;3.33;3.03;;;25.40;99.90;;;;;;4843849;29;20058;-92
2021/07/28 08:07:10;;;;;;;3.55;2.90;;;25.40;99.90;;;;;;4827429;29;20042;-92
2021/07/28 08:09:41;;;;;;;3.10;2.80;;;25.40;99.90;;;;;;4833354;29;20557;-91
2021/07/28 08:12:07;;;;;;;3.03;2.80;;;25.40;99.90;;;;;;4811844;29;20034;-91
2021/07/28 08:14:33;;;;;;;2.63;2.42;;;25.30;99.90;;;;;;4843030;29;20175;-92
2021/07/28 08:16:58;;;;;;;2.80;2.60;;;25.40;99.90;;;;;;4841995;29;20034;-92
2021/07/28 08:19:24;;;;;;;2.72;2.53;;;25.40;99.90;;;;;;4825592;29;20040;-92
2021/07/28 08:21:53;;;;;;;2.33;2.13;;;25.40;99.90;;;;;;4828996;29;20038;-93
2021/07/28 08:24:21;;;;;;;2.20;2.00;;;25.30;99.90;;;;;;4812020;29;20057;-92
2021/07/28 08:26:57;;;;;;;2.28;2.08;;;25.30;99.90;;;;;;4828181;29;20034;-92
2021/07/28 08:29:22;;;;;;;3.00;2.70;;;25.30;99.90;;;;;;4827072;29;20064;-92
2021/07/28 08:31:48;;;;;;;1.95;1.85;;;25.30;99.90;;;;;;4826295;29;20062;-92
2021/07/28 08:34:14;;;;;;;2.00;1.80;;;25.30;99.90;;;;;;4827596;29;20501;-93
2021/07/28 08:36:49;;;;;;;2.38;2.10;;;25.30;99.90;;;;;;4829710;29;20030;-93
2021/07/28 08:39:18;;;;;;;2.20;2.00;;;25.30;99.90;;;;;;4831762;29;20161;-92
2021/07/28 08:41:48;;;;;;;1.77;1.67;;;25.30;99.90;;;;;;4842409;29;20041;-91
2021/07/28 08:44:19;;;;;;;2.30;2.10;;;25.30;99.90;;;;;;4846331;29;20034;-91
2021/07/28 08:46:53;;;;;;;1.88;1.73;;;25.30;99.90;;;;;;4846001;29;20030;-93
2021/07/28 08:49:21;;;;;;;2.08;1.63;;;25.30;99.90;;;;;;4843959;29;20032;-92
2021/07/28 08:51:47;;;;;;;2.00;1.80;;;25.30;99.90;;;;;;4845052;29;20041;-94
2021/07/28 08:54:13;;;;;;;2.35;2.15;;;25.30;99.90;;;;;;4828580;29;20026;-91
2021/07/28 08:56:42;;;;;;;1.75;1.65;;;25.30;99.90;;;;;;4811146;29;20170;-91
2021/07/28 08:59:26;;;;;;;1.90;1.80;;;25.30;99.90;;;;;;4826266;29;20086;-95
2021/07/28 09:02:03;;;;;;;1.92;1.80;;;25.30;99.90;;;;;;4826273;29;20121;-89
2021/07/28 09:04:29;;;;;;;1.95;1.83;;;25.30;99.90;;;;;;4825953;29;20062;-90
2021/07/28 09:06:56;;;;;;;1.80;1.70;;;25.30;99.90;;;;;;4842234;29;20030;-91
2021/07/28 09:09:22;;;;;;;1.98;1.77;;;25.30;99.90;;;;;;4826498;29;20040;-89
2021/07/28 09:11:55;;;;;;;1.80;1.70;;;25.30;99.90;;;;;;4833163;29;20074;-91
2021/07/28 09:14:24;;;;;;;1.95;1.80;;;25.30;99.90;;;;;;4831004;29;20038;-93
2021/07/28 09:16:54;;;;;;;2.47;2.28;;;25.30;99.90;;;;;;4831744;29;20050;-92
2021/07/28 09:19:46;;;;;;;1.77;1.67;;;25.30;99.90;;;;;;4826144;29;20187;-93
2021/07/28 09:22:12;;;;;;;1.95;1.85;;;25.30;99.90;;;;;;4815220;29;20050;-91
2021/07/28 09:24:42;;;;;;;1.98;1.80;;;25.30;99.90;;;;;;4825529;29;20114;-91
2021/07/28 09:27:41;;;;;;;2.10;1.90;;;25.30;99.90;;;;;;4832039;29;20568;-91
2021/07/28 09:30:08;;;;;;;2.13;1.90;;;25.30;99.90;;;;;;4851150;29;20444;-91
2021/07/28 09:32:54;;;;;;;2.25;2.05;;;25.30;99.90;;;;;;4825293;29;20030;-91
2021/07/28 09:35:50;;;;;;;2.17;2.00;;;25.30;99.90;;;;;;4812353;29;20037;-91
2021/07/28 09:38:34;;;;;;;2.15;1.95;;;25.30;99.90;;;;;;4842036;29;20034;-90
2021/07/28 09:41:21;;;;;;;2.30;2.10;;;25.30;99.90;;;;;;4825430;29;20077;-90
2021/07/28 09:43:58;;;;;;;2.33;2.10;;;25.30;99.90;;;;;;4825088;29;20366;-90
2021/07/28 09:46:28;;;;;;;2.10;1.90;;;25.30;99.90;;;;;;4828861;29;20049;-90
2021/07/28 09:48:54;;;;;;;2.53;2.10;;;25.30;99.90;;;;;;4830363;29;20030;-90
2021/07/28 09:51:33;;;;;;;2.72;2.40;;;25.30;99.90;;;;;;4812798;29;20038;-91
2021/07/28 09:54:09;;;;;;;2.53;2.25;;;25.30;99.90;;;;;;4828251;29;20445;-91
2021/07/28 09:56:59;;;;;;;2.42;2.22;;;25.30;99.90;;;;;;4845121;29;20081;-90
2021/07/28 09:59:26;;;;;;;2.95;2.75;;;25.30;99.90;;;;;;4826058;29;20053;-93
2021/07/28 10:01:52;;;;;;;3.22;2.80;;;25.30;99.90;;;;;;4828944;29;20041;-93
2021/07/28 10:04:34;;;;;;;2.92;2.55;;;25.30;99.90;;;;;;4828903;29;20069;-92
2021/07/28 10:07:01;;;;;;;3.25;2.78;;;25.30;99.90;;;;;;4844936;29;20029;-91
2021/07/28 10:09:43;;;;;;;4.22;3.28;;;25.30;99.90;;;;;;4845597;29;20026;-93
2021/07/28 10:12:09;;;;;;;3.25;2.95;;;25.40;99.90;;;;;;4846452;29;20049;-93
2021/07/28 10:14:36;;;;;;;3.88;3.42;;;25.30;99.90;;;;;;4828929;29;20064;-93
2021/07/28 10:17:12;;;;;;;3.75;3.20;;;25.30;99.90;;;;;;4853126;29;20053;-93
2021/07/28 10:19:39;;;;;;;4.13;3.65;;;25.40;99.90;;;;;;4829113;29;20029;-93
2021/07/28 10:22:12;;;;;;;3.75;3.28;;;25.40;99.90;;;;;;4845447;29;20042;-93
2021/07/28 10:24:38;;;;;;;4.18;3.78;;;25.40;99.90;;;;;;4847669;29;20030;-92
2021/07/28 10:27:05;;;;;;;4.20;3.80;;;25.40;99.90;;;;;;4828805;29;20809;-92
2021/07/28 10:29:33;;;;;;;4.20;3.80;;;25.40;99.90;;;;;;4828271;29;20030;-92
2021/07/28 10:32:01;;;;;;;3.78;3.38;;;25.40;99.90;;;;;;4813318;29;20037;-91
2021/07/28 10:34:38;;;;;;;4.90;4.38;;;25.40;99.90;;;;;;4828896;29;20392;-93
2021/07/28 10:37:07;;;;;;;4.18;3.78;;;25.40;99.90;;;;;;4830696;29;20037;-93
2021/07/28 10:39:37;;;;;;;4.97;4.40;;;25.40;99.90;;;;;;4832058;29;20034;-91
2021/07/28 10:42:07;;;;;;;4.43;4.03;;;25.30;99.90;;;;;;4827613;29;20042;-91
2021/07/28 10:44:56;;;;;;;4.20;3.75;;;25.40;99.90;;;;;;4844057;29;20066;-92
2021/07/28 10:47:43;;;;;;;4.85;4.35;;;25.40;99.90;;;;;;4828019;29;20090;-90
2021/07/28 10:50:33;;;;;;;4.45;4.00;;;25.40;99.90;;;;;;4828199;29;20044;-91
2021/07/28 10:53:03;;;;;;;5.10;4.60;;;25.30;99.90;;;;;;4831298;29;20038;-92
2021/07/28 10:55:40;;;;;;;5.00;4.50;;;25.40;99.90;;;;;;4827454;29;20034;-94
2021/07/28 10:58:09;;;;;;;5.80;5.20;;;25.40;99.90;;;;;;4827671;29;20060;-92
2021/07/28 11:00:38;;;;;;;6.97;6.28;;;25.40;99.90;;;;;;4828383;29;20501;-88
2021/07/28 11:03:06;;;;;;;9.02;7.82;;;25.40;99.90;;;;;;4830062;29;20034;-88
2021/07/28 11:05:34;;;;;;;8.93;7.38;;;25.40;99.90;;;;;;4833785;29;20030;-88
2021/07/28 11:08:05;;;;;;;7.82;6.90;;;25.40;99.90;;;;;;4797194;29;20030;-88
2021/07/28 11:10:32;;;;;;;9.13;7.80;;;25.40;99.90;;;;;;4824806;29;20041;-88
2021/07/28 11:13:03;;;;;;;9.23;7.90;;;25.40;99.90;;;;;;4843485;29;20525;-89
2021/07/28 11:15:28;;;;;;;9.65;7.75;;;25.40;99.90;;;;;;4827666;29;20113;-88
2021/07/28 11:17:58;;;;;;;10.30;8.30;;;25.40;99.90;;;;;;4847277;29;20056;-87
2021/07/28 11:20:34;;;;;;;10.05;8.18;;;25.40;99.90;;;;;;4847848;29;20537;-87
2021/07/28 11:23:24;;;;;;;9.65;8.50;;;25.40;99.90;;;;;;4827887;29;20046;-87
2021/07/28 11:25:51;;;;;;;9.75;8.57;;;25.40;99.90;;;;;;4843195;29;20050;-88
2021/07/28 11:28:19;;;;;;;9.15;8.15;;;25.40;99.90;;;;;;4826571;29;20113;-87
2021/07/28 11:30:59;;;;;;;9.10;7.88;;;25.40;99.90;;;;;;4826975;29;20137;-87
2021/07/28 11:33:27;;;;;;;10.13;8.60;;;25.40;99.90;;;;;;4850737;29;20450;-87
2021/07/28 11:35:54;;;;;;;8.95;7.47;;;25.40;99.90;;;;;;4827160;29;20038;-90
2021/07/28 11:38:24;;;;;;;8.50;7.35;;;25.40;99.90;;;;;;4826483;29;20030;-87
2021/07/28 11:40:58;;;;;;;8.63;6.78;;;25.30;99.90;;;;;;4830034;29;20113;-88
2021/07/28 11:43:26;;;;;;;6.68;5.93;;;25.40;99.90;;;;;;4827083;29;20040;-87
2021/07/28 11:45:53;;;;;;;7.32;6.25;;;25.30;99.90;;;;;;4833759;29;20038;-86
2021/07/28 11:48:41;;;;;;;6.25;5.50;;;25.30;99.90;;;;;;4826355;29;20073;-86
2021/07/28 11:51:27;;;;;;;6.85;5.32;;;25.30;99.90;;;;;;4826003;29;20034;-86
2021/07/28 11:54:05;;;;;;;5.32;4.80;;;25.30;99.90;;;;;;4827324;29;20476;-87
2021/07/28 11:56:31;;;;;;;5.82;4.85;;;25.30;99.90;;;;;;4826516;29;20034;-86
2021/07/28 11:58:57;;;;;;;6.47;5.30;;;25.30;99.90;;;;;;4827989;29;20083;-88
2021/07/28 12:01:28;;;;;;;4.90;4.45;;;25.30;99.90;;;;;;4845783;29;20061;-87
2021/07/28 12:04:02;;;;;;;4.38;3.90;;;25.30;99.90;;;;;;4811952;29;20042;-87
2021/07/28 12:06:38;;;;;;;4.05;3.67;;;25.30;99.90;;;;;;4830270;29;20078;-87
2021/07/28 12:09:11;;;;;;;4.15;3.53;;;25.30;99.90;;;;;;4825760;29;20525;-88
2021/07/28 12:12:04;;;;;;;3.63;3.33;;;25.30;99.90;;;;;;4842823;29;20090;-87
2021/07/28 12:14:33;;;;;;;4.57;3.45;;;25.30;99.90;;;;;;4845744;29;20121;-87
2021/07/28 12:17:15;;;;;;;3.95;3.20;;;25.30;99.90;;;;;;4825987;29;20400;-88
2021/07/28 12:19:55;;;;;;;3.28;2.95;;;25.30;99.90;;;;;;4826304;29;20030;-87
2021/07/28 12:22:39;;;;;;;4.03;3.40;;;25.30;99.90;;;;;;4842551;29;20065;-88
2021/07/28 12:25:21;;;;;;;3.30;3.00;;;25.30;99.90;;;;;;4845024;29;20030;-87
2021/07/28 12:27:53;;;;;;;4.55;3.72;;;25.30;99.90;;;;;;4827900;29;20465;-87
2021/07/28 12:30:24;;;;;;;4.22;3.50;;;25.30;99.90;;;;;;4842243;29;20034;-87
2021/07/28 12:33:15;;;;;;;5.18;3.97;;;25.30;99.90;;;;;;4826450;29;20030;-87
2021/07/28 12:35:45;;;;;;;4.55;3.80;;;25.30;99.90;;;;;;4828775;29;20062;-87
2021/07/28 12:38:18;;;;;;;4.57;3.70;;;25.30;99.90;;;;;;4842568;29;20030;-88
2021/07/28 12:40:44;;;;;;;4.05;3.30;;;25.30;99.90;;;;;;4831769;29;20045;-88
2021/07/28 12:43:11;;;;;;;3.90;3.40;;;25.30;99.90;;;;;;4826290;29;20046;-87
2021/07/28 12:45:41;;;;;;;5.50;4.00;;;25.30;99.90;;;;;;4844507;29;20026;-87
2021/07/28 12:48:07;;;;;;;3.92;3.05;;;25.30;99.90;;;;;;4825934;29;20397;-88
2021/07/28 12:50:34;;;;;;;4.13;3.72;;;25.40;99.90;;;;;;4840706;29;20037;-87
2021/07/28 12:53:01;;;;;;;3.92;3.40;;;25.40;99.90;;;;;;4826033;29;20492;-87
2021/07/28 12:55:27;;;;;;;4.32;3.55;;;25.40;99.90;;;;;;4829243;29;20034;-87
2021/07/28 12:57:53;;;;;;;3.70;3.22;;;25.40;99.90;;;;;;4809658;29;20034;-87
2021/07/28 13:00:19;;;;;;;3.58;3.17;;;25.40;99.90;;;;;;4827226;29;20062;-90
2021/07/28 13:02:45;;;;;;;3.50;3.20;;;25.40;99.90;;;;;;4826416;29;20034;-87
2021/07/28 13:05:25;;;;;;;3.95;3.50;;;25.40;99.90;;;;;;4825610;29;20034;-87